sensor_id;sensor_type;location;lat;lon;timestamp;P1;durP1;ratioP1;P2;durP2;ratioP2
8488;SDS011;4281;45.772;12.852;2022-12-17T00:00:34;23.03;;;19.60;;
8488;SDS011;4281;45.772;12.852;2022-12-17T00:03:21;22.93;;;19.43;;
8488;SDS011;4281;45.772;12.852;2022-12-17T00:06:08;25.73;;;19.93;;
8488;SDS011;4281;45.772;12.852;2022-12-17T00:08:54;24.53;;;19.97;;
8488;SDS011;4281;45.772;12.852;2022-12-17T00:11:40;24.33;;;19.97;;
8488;SDS011;4281;45.772;12.852;2022-12-17T00:14:25;25.33;;;20.47;;
8488;SDS011;4281;45.772;12.852;2022-12-17T00:17:11;23.37;;;19.03;;
8488;SDS011;4281;45.772;12.852;2022-12-17T00:19:56;24.87;;;19.27;;
8488;SDS011;4281;45.772;12.852;2022-12-17T00:22:41;24.00;;;18.90;;
8488;SDS011;4281;45.772;12.852;2022-12-17T00:25:27;26.80;;;20.33;;
8488;SDS011;4281;45.772;12.852;2022-12-17T00:28:13;27.00;;;20.67;;
8488;SDS011;4281;45.772;12.852;2022-12-17T00:30:58;24.73;;;20.50;;
8488;SDS011;4281;45.772;12.852;2022-12-17T00:33:45;25.23;;;20.30;;
8488;SDS011;4281;45.772;12.852;2022-12-17T00:36:30;26.20;;;20.50;;
8488;SDS011;4281;45.772;12.852;2022-12-17T00:39:15;25.53;;;19.03;;
8488;SDS011;4281;45.772;12.852;2022-12-17T00:42:01;25.80;;;20.30;;
8488;SDS011;4281;45.772;12.852;2022-12-17T00:44:48;26.13;;;19.97;;
8488;SDS011;4281;45.772;12.852;2022-12-17T00:47:29;26.80;;;20.30;;
8488;SDS011;4281;45.772;12.852;2022-12-17T00:50:15;25.77;;;18.83;;
8488;SDS011;4281;45.772;12.852;2022-12-17T00:53:00;25.60;;;20.50;;
8488;SDS011;4281;45.772;12.852;2022-12-17T00:56:00;29.47;;;20.80;;
8488;SDS011;4281;45.772;12.852;2022-12-17T00:58:46;27.33;;;20.73;;
8488;SDS011;4281;45.772;12.852;2022-12-17T01:01:33;27.47;;;20.27;;
8488;SDS011;4281;45.772;12.852;2022-12-17T01:04:19;24.73;;;19.67;;
8488;SDS011;4281;45.772;12.852;2022-12-17T01:07:04;27.57;;;20.50;;
8488;SDS011;4281;45.772;12.852;2022-12-17T01:10:01;26.47;;;20.37;;
8488;SDS011;4281;45.772;12.852;2022-12-17T01:12:46;26.77;;;19.87;;
8488;SDS011;4281;45.772;12.852;2022-12-17T01:15:31;26.27;;;20.30;;
8488;SDS011;4281;45.772;12.852;2022-12-17T01:18:18;25.70;;;20.47;;
8488;SDS011;4281;45.772;12.852;2022-12-17T01:21:03;27.73;;;21.53;;
8488;SDS011;4281;45.772;12.852;2022-12-17T01:23:49;28.33;;;21.13;;
8488;SDS011;4281;45.772;12.852;2022-12-17T01:26:35;25.47;;;19.93;;
8488;SDS011;4281;45.772;12.852;2022-12-17T01:29:21;25.07;;;20.07;;
8488;SDS011;4281;45.772;12.852;2022-12-17T01:32:06;25.40;;;20.20;;
8488;SDS011;4281;45.772;12.852;2022-12-17T01:34:53;24.47;;;19.93;;
8488;SDS011;4281;45.772;12.852;2022-12-17T01:37:38;27.27;;;19.87;;
8488;SDS011;4281;45.772;12.852;2022-12-17T01:40:29;26.43;;;19.73;;
8488;SDS011;4281;45.772;12.852;2022-12-17T01:43:29;28.27;;;20.57;;
8488;SDS011;4281;45.772;12.852;2022-12-17T01:46:17;26.23;;;19.80;;
8488;SDS011;4281;45.772;12.852;2022-12-17T01:49:03;28.40;;;21.33;;
8488;SDS011;4281;45.772;12.852;2022-12-17T01:51:50;31.43;;;21.40;;
8488;SDS011;4281;45.772;12.852;2022-12-17T01:54:36;31.17;;;22.47;;
8488;SDS011;4281;45.772;12.852;2022-12-17T01:57:21;30.03;;;22.90;;
8488;SDS011;4281;45.772;12.852;2022-12-17T02:00:08;32.43;;;24.40;;
8488;SDS011;4281;45.772;12.852;2022-12-17T02:02:56;31.83;;;23.20;;
8488;SDS011;4281;45.772;12.852;2022-12-17T02:05:42;31.97;;;22.87;;
8488;SDS011;4281;45.772;12.852;2022-12-17T02:08:35;34.33;;;24.63;;
8488;SDS011;4281;45.772;12.852;2022-12-17T02:11:25;32.93;;;24.43;;
8488;SDS011;4281;45.772;12.852;2022-12-17T02:14:15;31.83;;;23.70;;
8488;SDS011;4281;45.772;12.852;2022-12-17T02:17:05;34.13;;;24.83;;
8488;SDS011;4281;45.772;12.852;2022-12-17T02:19:55;33.53;;;23.20;;
8488;SDS011;4281;45.772;12.852;2022-12-17T02:22:46;33.07;;;24.30;;
8488;SDS011;4281;45.772;12.852;2022-12-17T02:25:39;31.67;;;22.77;;
8488;SDS011;4281;45.772;12.852;2022-12-17T02:28:28;33.40;;;23.97;;
8488;SDS011;4281;45.772;12.852;2022-12-17T02:31:14;31.17;;;22.10;;
8488;SDS011;4281;45.772;12.852;2022-12-17T02:34:00;34.57;;;24.00;;
8488;SDS011;4281;45.772;12.852;2022-12-17T02:36:45;30.97;;;21.73;;
8488;SDS011;4281;45.772;12.852;2022-12-17T02:39:31;32.27;;;23.37;;
8488;SDS011;4281;45.772;12.852;2022-12-17T02:42:16;32.87;;;23.03;;
8488;SDS011;4281;45.772;12.852;2022-12-17T02:45:03;31.70;;;22.97;;
8488;SDS011;4281;45.772;12.852;2022-12-17T02:47:49;30.50;;;22.90;;
8488;SDS011;4281;45.772;12.852;2022-12-17T02:50:35;29.83;;;22.40;;
8488;SDS011;4281;45.772;12.852;2022-12-17T02:53:21;32.13;;;23.07;;
8488;SDS011;4281;45.772;12.852;2022-12-17T02:56:06;31.60;;;22.90;;
8488;SDS011;4281;45.772;12.852;2022-12-17T02:58:51;30.33;;;22.30;;
8488;SDS011;4281;45.772;12.852;2022-12-17T03:01:38;29.93;;;22.27;;
8488;SDS011;4281;45.772;12.852;2022-12-17T03:04:23;30.43;;;22.37;;
8488;SDS011;4281;45.772;12.852;2022-12-17T03:07:09;29.17;;;23.30;;
8488;SDS011;4281;45.772;12.852;2022-12-17T03:09:54;27.67;;;21.80;;
8488;SDS011;4281;45.772;12.852;2022-12-17T03:12:39;29.53;;;22.80;;
8488;SDS011;4281;45.772;12.852;2022-12-17T03:15:25;29.83;;;22.47;;
8488;SDS011;4281;45.772;12.852;2022-12-17T03:18:11;30.37;;;22.90;;
8488;SDS011;4281;45.772;12.852;2022-12-17T03:20:57;31.57;;;22.57;;
8488;SDS011;4281;45.772;12.852;2022-12-17T03:23:42;29.30;;;22.80;;
8488;SDS011;4281;45.772;12.852;2022-12-17T03:26:27;30.73;;;23.10;;
8488;SDS011;4281;45.772;12.852;2022-12-17T03:29:12;31.30;;;23.17;;
8488;SDS011;4281;45.772;12.852;2022-12-17T03:31:58;30.73;;;22.83;;
8488;SDS011;4281;45.772;12.852;2022-12-17T03:34:44;32.73;;;22.53;;
8488;SDS011;4281;45.772;12.852;2022-12-17T03:37:30;33.37;;;24.37;;
8488;SDS011;4281;45.772;12.852;2022-12-17T03:40:15;31.83;;;22.37;;
8488;SDS011;4281;45.772;12.852;2022-12-17T03:43:04;35.13;;;24.43;;
8488;SDS011;4281;45.772;12.852;2022-12-17T03:45:50;33.93;;;25.27;;
8488;SDS011;4281;45.772;12.852;2022-12-17T03:48:36;35.63;;;25.70;;
8488;SDS011;4281;45.772;12.852;2022-12-17T03:51:23;35.40;;;24.07;;
8488;SDS011;4281;45.772;12.852;2022-12-17T03:54:08;36.23;;;24.43;;
8488;SDS011;4281;45.772;12.852;2022-12-17T03:56:53;35.37;;;24.50;;
8488;SDS011;4281;45.772;12.852;2022-12-17T03:59:41;34.47;;;23.83;;
8488;SDS011;4281;45.772;12.852;2022-12-17T04:02:27;35.97;;;25.50;;
8488;SDS011;4281;45.772;12.852;2022-12-17T04:05:12;36.23;;;25.80;;
8488;SDS011;4281;45.772;12.852;2022-12-17T04:07:59;35.40;;;25.73;;
8488;SDS011;4281;45.772;12.852;2022-12-17T04:10:44;35.33;;;24.97;;
8488;SDS011;4281;45.772;12.852;2022-12-17T04:13:29;36.57;;;25.00;;
8488;SDS011;4281;45.772;12.852;2022-12-17T04:16:15;37.60;;;26.07;;
8488;SDS011;4281;45.772;12.852;2022-12-17T04:19:00;42.10;;;27.43;;
8488;SDS011;4281;45.772;12.852;2022-12-17T04:21:46;38.37;;;27.40;;
8488;SDS011;4281;45.772;12.852;2022-12-17T04:24:32;39.27;;;26.73;;
8488;SDS011;4281;45.772;12.852;2022-12-17T04:27:18;35.73;;;26.27;;
8488;SDS011;4281;45.772;12.852;2022-12-17T04:30:03;37.03;;;25.70;;
8488;SDS011;4281;45.772;12.852;2022-12-17T04:32:49;35.63;;;25.57;;
8488;SDS011;4281;45.772;12.852;2022-12-17T04:35:34;38.00;;;26.37;;
8488;SDS011;4281;45.772;12.852;2022-12-17T04:38:19;35.27;;;24.83;;
8488;SDS011;4281;45.772;12.852;2022-12-17T04:41:06;40.73;;;27.80;;
8488;SDS011;4281;45.772;12.852;2022-12-17T04:43:51;38.47;;;27.30;;
8488;SDS011;4281;45.772;12.852;2022-12-17T04:46:36;39.70;;;27.93;;
8488;SDS011;4281;45.772;12.852;2022-12-17T04:49:22;38.20;;;27.67;;
8488;SDS011;4281;45.772;12.852;2022-12-17T04:52:07;38.40;;;27.83;;
8488;SDS011;4281;45.772;12.852;2022-12-17T04:54:52;39.90;;;29.57;;
8488;SDS011;4281;45.772;12.852;2022-12-17T04:57:39;39.30;;;28.30;;
8488;SDS011;4281;45.772;12.852;2022-12-17T05:00:24;38.00;;;27.97;;
8488;SDS011;4281;45.772;12.852;2022-12-17T05:03:10;37.37;;;27.80;;
8488;SDS011;4281;45.772;12.852;2022-12-17T05:05:57;36.10;;;27.60;;
8488;SDS011;4281;45.772;12.852;2022-12-17T05:08:43;38.30;;;28.03;;
8488;SDS011;4281;45.772;12.852;2022-12-17T05:11:28;36.73;;;27.43;;
8488;SDS011;4281;45.772;12.852;2022-12-17T05:14:15;37.37;;;28.20;;
8488;SDS011;4281;45.772;12.852;2022-12-17T05:17:00;38.43;;;28.70;;
8488;SDS011;4281;45.772;12.852;2022-12-17T05:19:45;39.40;;;28.30;;
8488;SDS011;4281;45.772;12.852;2022-12-17T05:22:30;37.60;;;27.20;;
8488;SDS011;4281;45.772;12.852;2022-12-17T05:25:16;34.40;;;27.20;;
8488;SDS011;4281;45.772;12.852;2022-12-17T05:28:03;37.30;;;27.23;;
8488;SDS011;4281;45.772;12.852;2022-12-17T05:30:51;39.70;;;29.87;;
8488;SDS011;4281;45.772;12.852;2022-12-17T05:33:37;36.80;;;27.10;;
8488;SDS011;4281;45.772;12.852;2022-12-17T05:36:22;36.67;;;27.27;;
8488;SDS011;4281;45.772;12.852;2022-12-17T05:39:06;35.43;;;27.60;;
8488;SDS011;4281;45.772;12.852;2022-12-17T05:41:52;36.57;;;27.50;;
8488;SDS011;4281;45.772;12.852;2022-12-17T05:44:37;35.03;;;26.53;;
8488;SDS011;4281;45.772;12.852;2022-12-17T05:47:23;36.93;;;27.20;;
8488;SDS011;4281;45.772;12.852;2022-12-17T05:50:09;34.67;;;26.73;;
8488;SDS011;4281;45.772;12.852;2022-12-17T05:52:59;37.80;;;27.33;;
8488;SDS011;4281;45.772;12.852;2022-12-17T05:55:47;34.13;;;25.80;;
8488;SDS011;4281;45.772;12.852;2022-12-17T05:58:32;30.70;;;24.90;;
8488;SDS011;4281;45.772;12.852;2022-12-17T06:01:24;30.53;;;23.40;;
8488;SDS011;4281;45.772;12.852;2022-12-17T06:04:11;28.47;;;23.40;;
8488;SDS011;4281;45.772;12.852;2022-12-17T06:06:56;27.50;;;21.80;;
8488;SDS011;4281;45.772;12.852;2022-12-17T06:09:42;25.23;;;19.33;;
8488;SDS011;4281;45.772;12.852;2022-12-17T06:12:27;22.03;;;18.67;;
8488;SDS011;4281;45.772;12.852;2022-12-17T06:15:12;19.47;;;16.20;;
8488;SDS011;4281;45.772;12.852;2022-12-17T06:17:58;20.50;;;17.33;;
8488;SDS011;4281;45.772;12.852;2022-12-17T06:20:45;20.93;;;16.90;;
8488;SDS011;4281;45.772;12.852;2022-12-17T06:23:30;19.40;;;16.70;;
8488;SDS011;4281;45.772;12.852;2022-12-17T06:26:15;20.97;;;17.77;;
8488;SDS011;4281;45.772;12.852;2022-12-17T06:29:00;20.93;;;17.23;;
8488;SDS011;4281;45.772;12.852;2022-12-17T06:31:45;20.53;;;17.57;;
8488;SDS011;4281;45.772;12.852;2022-12-17T06:34:30;22.77;;;19.00;;
8488;SDS011;4281;45.772;12.852;2022-12-17T06:37:17;22.50;;;20.03;;
8488;SDS011;4281;45.772;12.852;2022-12-17T06:40:03;21.83;;;18.33;;
8488;SDS011;4281;45.772;12.852;2022-12-17T06:42:52;21.40;;;18.40;;
8488;SDS011;4281;45.772;12.852;2022-12-17T06:45:37;21.43;;;18.90;;
8488;SDS011;4281;45.772;12.852;2022-12-17T06:48:22;20.13;;;16.17;;
8488;SDS011;4281;45.772;12.852;2022-12-17T06:51:08;14.33;;;11.57;;
8488;SDS011;4281;45.772;12.852;2022-12-17T06:53:55;8.30;;;6.73;;
8488;SDS011;4281;45.772;12.852;2022-12-17T06:56:40;4.57;;;4.17;;
8488;SDS011;4281;45.772;12.852;2022-12-17T06:59:25;3.53;;;3.23;;
8488;SDS011;4281;45.772;12.852;2022-12-17T07:02:10;2.30;;;2.10;;
8488;SDS011;4281;45.772;12.852;2022-12-17T07:04:56;2.00;;;1.60;;
8488;SDS011;4281;45.772;12.852;2022-12-17T07:07:41;1.40;;;1.30;;
8488;SDS011;4281;45.772;12.852;2022-12-17T07:10:27;1.33;;;1.23;;
8488;SDS011;4281;45.772;12.852;2022-12-17T07:13:13;1.40;;;1.00;;
8488;SDS011;4281;45.772;12.852;2022-12-17T07:15:58;0.90;;;0.90;;
8488;SDS011;4281;45.772;12.852;2022-12-17T07:18:43;0.90;;;0.90;;
8488;SDS011;4281;45.772;12.852;2022-12-17T07:21:29;0.80;;;0.80;;
8488;SDS011;4281;45.772;12.852;2022-12-17T07:24:15;0.80;;;0.80;;
8488;SDS011;4281;45.772;12.852;2022-12-17T07:27:01;0.70;;;0.70;;
8488;SDS011;4281;45.772;12.852;2022-12-17T07:29:47;0.90;;;0.90;;
8488;SDS011;4281;45.772;12.852;2022-12-17T07:32:32;0.70;;;0.70;;
8488;SDS011;4281;45.772;12.852;2022-12-17T07:35:17;0.70;;;0.70;;
8488;SDS011;4281;45.772;12.852;2022-12-17T07:38:03;0.70;;;0.70;;
8488;SDS011;4281;45.772;12.852;2022-12-17T07:40:48;0.70;;;0.70;;
8488;SDS011;4281;45.772;12.852;2022-12-17T07:43:35;0.70;;;0.70;;
8488;SDS011;4281;45.772;12.852;2022-12-17T07:46:20;0.70;;;0.70;;
8488;SDS011;4281;45.772;12.852;2022-12-17T07:49:06;0.50;;;0.50;;
8488;SDS011;4281;45.772;12.852;2022-12-17T07:51:51;0.53;;;0.53;;
8488;SDS011;4281;45.772;12.852;2022-12-17T07:54:37;1.30;;;0.67;;
8488;SDS011;4281;45.772;12.852;2022-12-17T07:57:22;0.70;;;0.70;;
8488;SDS011;4281;45.772;12.852;2022-12-17T08:00:09;0.63;;;0.63;;
8488;SDS011;4281;45.772;12.852;2022-12-17T08:02:56;0.90;;;0.70;;
8488;SDS011;4281;45.772;12.852;2022-12-17T08:05:41;0.80;;;0.80;;
8488;SDS011;4281;45.772;12.852;2022-12-17T08:08:27;0.90;;;0.90;;
8488;SDS011;4281;45.772;12.852;2022-12-17T08:11:12;0.73;;;0.73;;
8488;SDS011;4281;45.772;12.852;2022-12-17T08:13:57;0.90;;;0.80;;
8488;SDS011;4281;45.772;12.852;2022-12-17T08:16:44;0.80;;;0.80;;
8488;SDS011;4281;45.772;12.852;2022-12-17T08:19:29;1.10;;;1.00;;
8488;SDS011;4281;45.772;12.852;2022-12-17T08:22:15;0.97;;;0.93;;
8488;SDS011;4281;45.772;12.852;2022-12-17T08:25:00;0.90;;;0.90;;
8488;SDS011;4281;45.772;12.852;2022-12-17T08:27:46;0.93;;;0.93;;
8488;SDS011;4281;45.772;12.852;2022-12-17T08:31:03;1.10;;;1.00;;
8488;SDS011;4281;45.772;12.852;2022-12-17T08:33:49;1.30;;;1.20;;
8488;SDS011;4281;45.772;12.852;2022-12-17T08:36:34;1.00;;;1.00;;
8488;SDS011;4281;45.772;12.852;2022-12-17T08:39:20;1.20;;;1.10;;
8488;SDS011;4281;45.772;12.852;2022-12-17T08:42:05;0.83;;;0.83;;
8488;SDS011;4281;45.772;12.852;2022-12-17T08:44:51;0.80;;;0.80;;
8488;SDS011;4281;45.772;12.852;2022-12-17T08:47:36;1.97;;;0.90;;
8488;SDS011;4281;45.772;12.852;2022-12-17T08:50:30;1.93;;;1.10;;
8488;SDS011;4281;45.772;12.852;2022-12-17T08:53:15;1.37;;;1.00;;
8488;SDS011;4281;45.772;12.852;2022-12-17T08:56:00;1.10;;;0.93;;
8488;SDS011;4281;45.772;12.852;2022-12-17T08:58:45;0.70;;;0.70;;
8488;SDS011;4281;45.772;12.852;2022-12-17T09:01:31;0.70;;;0.70;;
8488;SDS011;4281;45.772;12.852;2022-12-17T09:04:16;0.50;;;0.50;;
8488;SDS011;4281;45.772;12.852;2022-12-17T09:07:03;0.93;;;0.73;;
8488;SDS011;4281;45.772;12.852;2022-12-17T09:10:00;0.87;;;0.77;;
8488;SDS011;4281;45.772;12.852;2022-12-17T09:12:45;0.67;;;0.67;;
8488;SDS011;4281;45.772;12.852;2022-12-17T09:15:30;1.37;;;0.70;;
8488;SDS011;4281;45.772;12.852;2022-12-17T09:18:17;0.60;;;0.60;;
8488;SDS011;4281;45.772;12.852;2022-12-17T09:21:02;0.87;;;0.80;;
8488;SDS011;4281;45.772;12.852;2022-12-17T09:23:49;1.33;;;0.90;;
8488;SDS011;4281;45.772;12.852;2022-12-17T09:26:35;0.90;;;0.70;;
8488;SDS011;4281;45.772;12.852;2022-12-17T09:29:20;1.00;;;0.67;;
8488;SDS011;4281;45.772;12.852;2022-12-17T09:32:05;0.90;;;0.87;;
8488;SDS011;4281;45.772;12.852;2022-12-17T09:34:51;1.30;;;0.83;;
8488;SDS011;4281;45.772;12.852;2022-12-17T09:37:36;1.17;;;1.00;;
8488;SDS011;4281;45.772;12.852;2022-12-17T09:40:23;1.20;;;1.10;;
8488;SDS011;4281;45.772;12.852;2022-12-17T09:43:12;1.10;;;1.00;;
8488;SDS011;4281;45.772;12.852;2022-12-17T09:46:04;1.00;;;1.00;;
8488;SDS011;4281;45.772;12.852;2022-12-17T09:48:54;0.80;;;0.80;;
8488;SDS011;4281;45.772;12.852;2022-12-17T09:51:44;1.10;;;0.90;;
8488;SDS011;4281;45.772;12.852;2022-12-17T09:54:31;1.00;;;0.90;;
8488;SDS011;4281;45.772;12.852;2022-12-17T09:57:27;1.20;;;1.00;;
8488;SDS011;4281;45.772;12.852;2022-12-17T10:00:13;1.03;;;0.97;;
8488;SDS011;4281;45.772;12.852;2022-12-17T10:03:00;1.10;;;1.00;;
8488;SDS011;4281;45.772;12.852;2022-12-17T10:05:46;1.30;;;1.13;;
8488;SDS011;4281;45.772;12.852;2022-12-17T10:08:31;1.20;;;1.00;;
8488;SDS011;4281;45.772;12.852;2022-12-17T10:11:18;1.27;;;0.90;;
8488;SDS011;4281;45.772;12.852;2022-12-17T10:14:10;1.37;;;1.10;;
8488;SDS011;4281;45.772;12.852;2022-12-17T10:16:58;1.53;;;1.10;;
8488;SDS011;4281;45.772;12.852;2022-12-17T10:19:43;1.13;;;1.00;;
8488;SDS011;4281;45.772;12.852;2022-12-17T10:22:29;0.90;;;0.90;;
8488;SDS011;4281;45.772;12.852;2022-12-17T10:25:26;1.10;;;0.90;;
8488;SDS011;4281;45.772;12.852;2022-12-17T10:28:12;0.70;;;0.70;;
8488;SDS011;4281;45.772;12.852;2022-12-17T10:31:00;1.10;;;0.60;;
8488;SDS011;4281;45.772;12.852;2022-12-17T10:33:45;0.60;;;0.60;;
8488;SDS011;4281;45.772;12.852;2022-12-17T10:36:31;0.77;;;0.70;;
8488;SDS011;4281;45.772;12.852;2022-12-17T10:39:16;0.70;;;0.70;;
8488;SDS011;4281;45.772;12.852;2022-12-17T10:42:16;0.70;;;0.70;;
8488;SDS011;4281;45.772;12.852;2022-12-17T10:45:16;0.97;;;0.97;;
8488;SDS011;4281;45.772;12.852;2022-12-17T10:48:17;0.70;;;0.70;;
8488;SDS011;4281;45.772;12.852;2022-12-17T10:51:04;0.80;;;0.80;;
8488;SDS011;4281;45.772;12.852;2022-12-17T10:53:50;0.87;;;0.80;;
8488;SDS011;4281;45.772;12.852;2022-12-17T10:56:36;0.80;;;0.80;;
8488;SDS011;4281;45.772;12.852;2022-12-17T11:01:52;0.80;;;0.80;;
8488;SDS011;4281;45.772;12.852;2022-12-17T11:04:49;0.90;;;0.80;;
8488;SDS011;4281;45.772;12.852;2022-12-17T11:07:35;1.10;;;0.87;;
8488;SDS011;4281;45.772;12.852;2022-12-17T11:10:23;1.00;;;0.90;;
8488;SDS011;4281;45.772;12.852;2022-12-17T11:13:09;0.90;;;0.80;;
8488;SDS011;4281;45.772;12.852;2022-12-17T11:15:57;0.80;;;0.80;;
8488;SDS011;4281;45.772;12.852;2022-12-17T11:18:47;0.70;;;0.70;;
8488;SDS011;4281;45.772;12.852;2022-12-17T11:21:38;0.90;;;0.80;;
8488;SDS011;4281;45.772;12.852;2022-12-17T11:24:25;0.93;;;0.90;;
8488;SDS011;4281;45.772;12.852;2022-12-17T11:27:15;1.10;;;0.97;;
8488;SDS011;4281;45.772;12.852;2022-12-17T11:30:09;0.97;;;0.97;;
8488;SDS011;4281;45.772;12.852;2022-12-17T11:33:00;1.00;;;0.90;;
8488;SDS011;4281;45.772;12.852;2022-12-17T11:35:53;1.03;;;0.87;;
8488;SDS011;4281;45.772;12.852;2022-12-17T11:38:46;0.70;;;0.70;;
8488;SDS011;4281;45.772;12.852;2022-12-17T11:41:38;1.07;;;0.97;;
8488;SDS011;4281;45.772;12.852;2022-12-17T11:44:40;0.90;;;0.80;;
8488;SDS011;4281;45.772;12.852;2022-12-17T11:47:32;0.77;;;0.77;;
8488;SDS011;4281;45.772;12.852;2022-12-17T11:50:25;0.90;;;0.83;;
8488;SDS011;4281;45.772;12.852;2022-12-17T11:53:15;0.80;;;0.80;;
8488;SDS011;4281;45.772;12.852;2022-12-17T11:56:22;0.63;;;0.63;;
8488;SDS011;4281;45.772;12.852;2022-12-17T12:02:03;1.17;;;1.03;;
8488;SDS011;4281;45.772;12.852;2022-12-17T12:05:01;0.93;;;0.83;;
8488;SDS011;4281;45.772;12.852;2022-12-17T12:07:55;0.93;;;0.90;;
8488;SDS011;4281;45.772;12.852;2022-12-17T12:10:50;1.00;;;0.90;;
8488;SDS011;4281;45.772;12.852;2022-12-17T12:13:42;0.90;;;0.90;;
8488;SDS011;4281;45.772;12.852;2022-12-17T12:16:34;1.20;;;1.10;;
8488;SDS011;4281;45.772;12.852;2022-12-17T12:19:38;0.80;;;0.80;;
8488;SDS011;4281;45.772;12.852;2022-12-17T12:22:29;1.30;;;1.20;;
8488;SDS011;4281;45.772;12.852;2022-12-17T12:25:21;0.87;;;0.87;;
8488;SDS011;4281;45.772;12.852;2022-12-17T12:28:13;1.20;;;1.10;;
8488;SDS011;4281;45.772;12.852;2022-12-17T12:31:10;1.67;;;1.00;;
8488;SDS011;4281;45.772;12.852;2022-12-17T12:34:01;1.50;;;1.30;;
8488;SDS011;4281;45.772;12.852;2022-12-17T12:36:48;1.30;;;1.20;;
8488;SDS011;4281;45.772;12.852;2022-12-17T12:39:35;1.20;;;1.10;;
8488;SDS011;4281;45.772;12.852;2022-12-17T12:42:24;1.17;;;1.07;;
8488;SDS011;4281;45.772;12.852;2022-12-17T12:45:17;1.10;;;1.00;;
8488;SDS011;4281;45.772;12.852;2022-12-17T12:48:12;1.20;;;1.10;;
8488;SDS011;4281;45.772;12.852;2022-12-17T12:51:08;1.13;;;1.03;;
8488;SDS011;4281;45.772;12.852;2022-12-17T12:54:00;1.20;;;1.10;;
8488;SDS011;4281;45.772;12.852;2022-12-17T12:57:00;0.80;;;0.80;;
8488;SDS011;4281;45.772;12.852;2022-12-17T12:59:46;0.80;;;0.80;;
8488;SDS011;4281;45.772;12.852;2022-12-17T13:02:32;1.33;;;1.00;;
8488;SDS011;4281;45.772;12.852;2022-12-17T13:05:24;1.30;;;1.20;;
8488;SDS011;4281;45.772;12.852;2022-12-17T13:08:16;1.17;;;1.07;;
8488;SDS011;4281;45.772;12.852;2022-12-17T13:10:46;0.97;;;0.97;;
8488;SDS011;4281;45.772;12.852;2022-12-17T13:13:26;1.30;;;0.97;;
8488;SDS011;4281;45.772;12.852;2022-12-17T13:15:58;1.10;;;1.00;;
8488;SDS011;4281;45.772;12.852;2022-12-17T13:18:30;0.93;;;0.90;;
8488;SDS011;4281;45.772;12.852;2022-12-17T13:21:03;1.13;;;1.00;;
8488;SDS011;4281;45.772;12.852;2022-12-17T13:23:33;0.90;;;0.80;;
8488;SDS011;4281;45.772;12.852;2022-12-17T13:26:13;1.10;;;1.00;;
8488;SDS011;4281;45.772;12.852;2022-12-17T13:28:57;0.80;;;0.80;;
8488;SDS011;4281;45.772;12.852;2022-12-17T13:31:27;1.20;;;1.10;;
8488;SDS011;4281;45.772;12.852;2022-12-17T13:34:00;1.00;;;0.90;;
8488;SDS011;4281;45.772;12.852;2022-12-17T13:36:36;1.07;;;0.90;;
8488;SDS011;4281;45.772;12.852;2022-12-17T13:39:11;1.30;;;1.20;;
8488;SDS011;4281;45.772;12.852;2022-12-17T13:41:50;1.40;;;1.30;;
8488;SDS011;4281;45.772;12.852;2022-12-17T13:44:19;1.53;;;1.40;;
8488;SDS011;4281;45.772;12.852;2022-12-17T13:46:49;2.20;;;1.40;;
8488;SDS011;4281;45.772;12.852;2022-12-17T13:49:19;1.30;;;1.20;;
8488;SDS011;4281;45.772;12.852;2022-12-17T13:51:59;1.20;;;1.10;;
8488;SDS011;4281;45.772;12.852;2022-12-17T13:54:36;1.40;;;1.30;;
8488;SDS011;4281;45.772;12.852;2022-12-17T13:57:05;1.37;;;1.27;;
8488;SDS011;4281;45.772;12.852;2022-12-17T14:02:23;1.30;;;1.20;;
8488;SDS011;4281;45.772;12.852;2022-12-17T14:04:52;1.13;;;1.03;;
8488;SDS011;4281;45.772;12.852;2022-12-17T14:07:24;1.10;;;1.00;;
8488;SDS011;4281;45.772;12.852;2022-12-17T14:09:53;1.30;;;1.20;;
8488;SDS011;4281;45.772;12.852;2022-12-17T14:12:22;1.30;;;1.20;;
8488;SDS011;4281;45.772;12.852;2022-12-17T14:14:52;1.50;;;1.30;;
8488;SDS011;4281;45.772;12.852;2022-12-17T14:17:22;1.40;;;1.30;;
8488;SDS011;4281;45.772;12.852;2022-12-17T14:19:57;1.50;;;1.30;;
8488;SDS011;4281;45.772;12.852;2022-12-17T14:22:30;1.67;;;1.57;;
8488;SDS011;4281;45.772;12.852;2022-12-17T14:25:01;1.63;;;1.40;;
8488;SDS011;4281;45.772;12.852;2022-12-17T14:27:31;1.40;;;1.30;;
8488;SDS011;4281;45.772;12.852;2022-12-17T14:30:00;1.73;;;1.63;;
8488;SDS011;4281;45.772;12.852;2022-12-17T14:32:31;1.80;;;1.70;;
8488;SDS011;4281;45.772;12.852;2022-12-17T14:34:59;1.77;;;1.50;;
8488;SDS011;4281;45.772;12.852;2022-12-17T14:37:28;2.07;;;1.50;;
8488;SDS011;4281;45.772;12.852;2022-12-17T14:39:59;1.83;;;1.50;;
8488;SDS011;4281;45.772;12.852;2022-12-17T14:42:28;1.60;;;1.50;;
8488;SDS011;4281;45.772;12.852;2022-12-17T14:44:58;1.43;;;1.33;;
8488;SDS011;4281;45.772;12.852;2022-12-17T14:47:27;1.70;;;1.60;;
8488;SDS011;4281;45.772;12.852;2022-12-17T14:50:00;1.40;;;1.30;;
8488;SDS011;4281;45.772;12.852;2022-12-17T14:52:41;1.60;;;1.50;;
8488;SDS011;4281;45.772;12.852;2022-12-17T14:55:21;1.83;;;1.70;;
8488;SDS011;4281;45.772;12.852;2022-12-17T14:57:50;2.43;;;1.80;;
8488;SDS011;4281;45.772;12.852;2022-12-17T15:00:19;1.90;;;1.70;;
8488;SDS011;4281;45.772;12.852;2022-12-17T15:02:49;1.57;;;1.47;;
8488;SDS011;4281;45.772;12.852;2022-12-17T15:05:18;1.50;;;1.40;;
8488;SDS011;4281;45.772;12.852;2022-12-17T15:07:47;1.40;;;1.30;;
8488;SDS011;4281;45.772;12.852;2022-12-17T15:10:15;1.40;;;1.23;;
8488;SDS011;4281;45.772;12.852;2022-12-17T15:12:45;1.33;;;1.23;;
8488;SDS011;4281;45.772;12.852;2022-12-17T15:15:14;2.03;;;1.50;;
8488;SDS011;4281;45.772;12.852;2022-12-17T15:17:42;1.40;;;1.30;;
8488;SDS011;4281;45.772;12.852;2022-12-17T15:20:14;1.40;;;1.30;;
8488;SDS011;4281;45.772;12.852;2022-12-17T15:22:43;1.40;;;1.30;;
8488;SDS011;4281;45.772;12.852;2022-12-17T15:25:13;1.60;;;1.50;;
8488;SDS011;4281;45.772;12.852;2022-12-17T15:27:41;1.40;;;1.30;;
8488;SDS011;4281;45.772;12.852;2022-12-17T15:30:12;1.40;;;1.30;;
8488;SDS011;4281;45.772;12.852;2022-12-17T15:32:40;1.40;;;1.30;;
8488;SDS011;4281;45.772;12.852;2022-12-17T15:35:08;2.00;;;1.50;;
8488;SDS011;4281;45.772;12.852;2022-12-17T15:37:37;2.60;;;1.93;;
8488;SDS011;4281;45.772;12.852;2022-12-17T15:40:06;2.70;;;2.10;;
8488;SDS011;4281;45.772;12.852;2022-12-17T15:42:37;2.00;;;1.80;;
8488;SDS011;4281;45.772;12.852;2022-12-17T15:45:30;1.63;;;1.53;;
8488;SDS011;4281;45.772;12.852;2022-12-17T15:47:57;1.67;;;1.47;;
8488;SDS011;4281;45.772;12.852;2022-12-17T15:50:25;1.30;;;1.20;;
8488;SDS011;4281;45.772;12.852;2022-12-17T15:52:53;1.50;;;1.40;;
8488;SDS011;4281;45.772;12.852;2022-12-17T15:55:21;2.00;;;1.90;;
8488;SDS011;4281;45.772;12.852;2022-12-17T15:57:50;2.13;;;1.93;;
8488;SDS011;4281;45.772;12.852;2022-12-17T16:00:18;1.97;;;1.80;;
8488;SDS011;4281;45.772;12.852;2022-12-17T16:02:46;1.80;;;1.70;;
8488;SDS011;4281;45.772;12.852;2022-12-17T16:05:15;1.70;;;1.60;;
8488;SDS011;4281;45.772;12.852;2022-12-17T16:07:43;2.17;;;1.97;;
8488;SDS011;4281;45.772;12.852;2022-12-17T16:10:11;2.13;;;1.93;;
8488;SDS011;4281;45.772;12.852;2022-12-17T16:12:39;1.97;;;1.83;;
8488;SDS011;4281;45.772;12.852;2022-12-17T16:15:09;2.10;;;1.90;;
8488;SDS011;4281;45.772;12.852;2022-12-17T16:17:37;2.10;;;1.90;;
8488;SDS011;4281;45.772;12.852;2022-12-17T16:20:05;3.07;;;2.37;;
8488;SDS011;4281;45.772;12.852;2022-12-17T16:22:34;2.40;;;2.20;;
8488;SDS011;4281;45.772;12.852;2022-12-17T16:25:01;3.00;;;2.37;;
8488;SDS011;4281;45.772;12.852;2022-12-17T16:27:30;3.00;;;2.70;;
8488;SDS011;4281;45.772;12.852;2022-12-17T16:29:57;3.40;;;2.87;;
8488;SDS011;4281;45.772;12.852;2022-12-17T16:32:27;2.90;;;2.60;;
8488;SDS011;4281;45.772;12.852;2022-12-17T16:35:01;2.30;;;2.10;;
8488;SDS011;4281;45.772;12.852;2022-12-17T16:37:29;2.37;;;2.10;;